createdAt,value
2018-05-21T00:02:27.895Z,31.25
2018-05-21T00:04:57.465Z,31.14
2018-05-21T00:07:27.069Z,31.00
2018-05-21T00:09:56.637Z,30.88
2018-05-21T00:12:26.249Z,30.64
2018-05-21T00:15:11.345Z,30.60
2018-05-21T00:17:42.427Z,30.53
2018-05-21T00:20:12.784Z,30.45
2018-05-21T00:22:43.106Z,30.36
2018-05-21T00:25:13.496Z,30.51
2018-05-21T00:27:43.801Z,30.43
2018-05-21T00:30:14.936Z,30.50
2018-05-21T00:32:45.253Z,30.22
2018-05-21T00:35:14.815Z,30.25
2018-05-21T00:37:44.395Z,30.13
2018-05-21T00:40:13.973Z,29.99
2018-05-21T00:42:43.613Z,29.93
2018-05-21T00:45:13.210Z,29.50
2018-05-21T00:47:42.824Z,29.36
2018-05-21T00:50:12.378Z,29.18
2018-05-21T00:52:41.945Z,28.92
2018-05-21T00:55:37.286Z,28.74
2018-05-21T00:58:09.791Z,28.67
2018-05-21T01:00:40.129Z,28.57
2018-05-21T01:05:39.997Z,28.48
2018-05-21T01:08:09.598Z,28.29
2018-05-21T01:10:39.941Z,28.18
2018-05-21T01:13:09.522Z,28.13
2018-05-21T01:15:39.938Z,28.07
2018-05-21T01:18:09.436Z,27.73
2018-05-21T01:20:39.036Z,27.64
2018-05-21T01:23:08.593Z,27.83
2018-05-21T01:25:39.436Z,27.79
2018-05-21T01:28:09.769Z,27.94
2018-05-21T01:30:39.414Z,28.01
2018-05-21T01:33:08.977Z,27.86
2018-05-21T01:35:38.577Z,27.93
2018-05-21T01:38:08.166Z,27.79
2018-05-21T01:40:52.646Z,27.65
2018-05-21T01:43:22.218Z,27.57
2018-05-21T01:45:53.342Z,27.59
2018-05-21T01:48:22.940Z,27.60
2018-05-21T01:50:54.025Z,27.41
2018-05-21T01:53:24.655Z,27.54
2018-05-21T01:55:54.207Z,27.56
2018-05-21T01:58:23.828Z,27.60
2018-05-21T02:00:54.184Z,27.62
2018-05-21T02:03:23.770Z,27.58
2018-05-21T02:05:56.269Z,27.79
2018-05-21T02:08:26.462Z,27.91
2018-05-21T02:11:37.032Z,28.08
2018-05-21T02:14:06.637Z,28.17
2018-05-21T02:16:36.997Z,28.19
2018-05-21T02:19:06.566Z,28.10
2018-05-21T02:21:36.906Z,28.18
2018-05-21T02:24:07.229Z,27.99
2018-05-21T02:26:37.590Z,28.24
2018-05-21T02:29:07.929Z,28.38
2018-05-21T02:31:37.490Z,28.39
2018-05-21T02:34:07.834Z,28.49
2018-05-21T02:36:37.426Z,28.25
2018-05-21T02:39:08.555Z,28.19
2018-05-21T02:41:38.126Z,27.94
2018-05-21T02:44:08.382Z,27.86
2018-05-21T02:46:37.926Z,27.79
2018-05-21T02:49:07.505Z,27.88
2018-05-21T02:51:37.056Z,28.16
2018-05-21T02:54:08.933Z,28.08
2018-05-21T02:56:39.269Z,28.28
2018-05-21T02:59:08.902Z,28.28
2018-05-21T03:01:41.418Z,28.13
2018-05-21T03:04:11.069Z,28.17
2018-05-21T03:06:40.643Z,28.27
2018-05-21T03:09:10.232Z,28.29
2018-05-21T03:11:39.785Z,28.34
2018-05-21T03:14:09.346Z,28.33
2018-05-21T03:16:38.884Z,28.41
2018-05-21T03:19:08.516Z,28.58
2018-05-21T03:21:38.061Z,28.58
2018-05-21T03:24:21.764Z,28.55
2018-05-21T03:26:53.668Z,28.65
2018-05-21T03:29:23.229Z,28.61
2018-05-21T03:31:53.554Z,29.13
2018-05-21T03:34:23.109Z,29.10
2018-05-21T03:36:52.670Z,29.15
2018-05-21T03:39:22.254Z,29.24
2018-05-21T03:41:51.809Z,29.14
2018-05-21T03:44:22.141Z,29.11
2018-05-21T03:46:52.916Z,29.16
2018-05-21T03:49:23.248Z,29.15
2018-05-21T03:51:52.803Z,29.14
2018-05-21T03:54:22.455Z,28.93
2018-05-21T03:56:53.144Z,29.06
2018-05-21T03:59:47.039Z,29.00
2018-05-21T04:04:44.406Z,29.06
2018-05-21T04:07:27.346Z,28.99
2018-05-21T04:09:57.750Z,28.96
2018-05-21T04:12:27.330Z,29.33
2018-05-21T04:14:57.689Z,29.41
2018-05-21T04:17:28.013Z,29.53
2018-05-21T04:20:00.686Z,29.68
2018-05-21T04:22:31.039Z,30.07
2018-05-21T04:25:04.218Z,30.03
2018-05-21T04:27:33.810Z,30.25
2018-05-21T04:30:06.303Z,30.07
2018-05-21T04:32:36.656Z,30.25
2018-05-21T04:35:06.971Z,30.25
2018-05-21T04:37:36.597Z,30.46
2018-05-21T04:40:06.945Z,30.29
2018-05-21T04:42:37.297Z,30.50
2018-05-21T04:45:08.405Z,30.34
2018-05-21T04:47:38.746Z,30.39
2018-05-21T04:50:09.865Z,30.54
2018-05-21T04:52:39.437Z,30.42
2018-05-21T04:55:08.988Z,30.34
2018-05-21T04:57:38.560Z,30.45
2018-05-21T05:00:11.220Z,30.71
2018-05-21T05:02:43.809Z,31.01
2018-05-21T05:05:14.927Z,31.06
2018-05-21T05:07:45.250Z,30.75
2018-05-21T05:10:15.598Z,30.87
2018-05-21T05:12:45.179Z,30.86
2018-05-21T05:15:15.634Z,30.82
2018-05-21T05:17:45.184Z,30.86
2018-05-21T05:20:14.794Z,30.94
2018-05-21T05:22:44.329Z,30.97
2018-05-21T05:25:13.924Z,31.27
2018-05-21T05:27:45.009Z,31.42
2018-05-21T05:30:14.636Z,31.62
2018-05-21T05:32:44.921Z,31.77
2018-05-21T05:35:14.497Z,31.20
2018-05-21T05:37:44.085Z,30.63
2018-05-21T05:40:14.423Z,30.28
2018-05-21T05:42:44.761Z,29.94
2018-05-21T05:45:14.293Z,29.83
2018-05-21T05:47:43.876Z,29.56
2018-05-21T05:50:14.189Z,29.41
2018-05-21T05:52:43.796Z,29.26
2018-05-21T05:55:14.196Z,29.14
2018-05-21T05:57:44.541Z,29.08
2018-05-21T06:00:14.076Z,28.90
2018-05-21T06:02:44.494Z,28.87
2018-05-21T06:05:15.606Z,28.72
2018-05-21T06:07:49.429Z,28.73
2018-05-21T06:10:20.634Z,28.65
2018-05-21T06:12:50.189Z,28.56
2018-05-21T06:15:21.317Z,28.59
2018-05-21T06:17:50.885Z,28.51
2018-05-21T06:20:21.310Z,28.46
2018-05-21T06:22:50.876Z,28.39
2018-05-21T06:25:20.466Z,28.45
2018-05-21T06:27:50.837Z,28.47
2018-05-21T06:30:20.426Z,28.51
2018-05-21T06:32:49.964Z,28.48
2018-05-21T06:35:19.565Z,28.44
2018-05-21T06:37:49.129Z,28.52
2018-05-21T06:40:18.737Z,28.45
2018-05-21T06:42:48.326Z,28.41
2018-05-21T06:45:17.905Z,28.35
2018-05-21T06:47:48.432Z,28.35
2018-05-21T06:50:20.288Z,28.34
2018-05-21T06:52:49.854Z,28.27
2018-05-21T06:55:19.401Z,28.17
2018-05-21T06:57:49.738Z,28.24
2018-05-21T07:00:20.857Z,28.32
2018-05-21T07:02:51.950Z,28.41
2018-05-21T07:05:24.475Z,28.18
2018-05-21T07:07:57.063Z,28.10
2018-05-21T07:10:26.546Z,28.07
2018-05-21T07:12:56.913Z,28.10
2018-05-21T07:15:26.498Z,28.07
2018-05-21T07:17:56.089Z,28.09
2018-05-21T07:20:26.432Z,28.07
2018-05-21T07:22:56.849Z,28.04
2018-05-21T07:25:26.431Z,28.12
2018-05-21T07:27:56.070Z,28.05
2018-05-21T07:30:26.477Z,28.03
2018-05-21T07:33:08.646Z,28.38
2018-05-21T07:35:41.145Z,28.23
2018-05-21T07:38:10.711Z,28.13
2018-05-21T07:40:40.285Z,28.12
2018-05-21T07:43:10.669Z,28.09
2018-05-21T07:45:40.251Z,28.10
2018-05-21T07:48:10.564Z,28.05
2018-05-21T07:50:41.705Z,28.02
2018-05-21T07:53:11.797Z,27.97
2018-05-21T07:55:41.409Z,28.01
2018-05-21T07:58:11.185Z,27.89
2018-05-21T08:00:40.773Z,27.89
2018-05-21T08:03:11.081Z,27.87
2018-05-21T08:05:41.457Z,27.82
2018-05-21T08:08:11.025Z,27.84
2018-05-21T08:10:42.705Z,27.99
2018-05-21T08:13:12.297Z,27.97
2018-05-21T08:15:41.904Z,27.98
2018-05-21T08:18:11.471Z,28.04
2018-05-21T08:20:42.569Z,28.03
2018-05-21T08:23:12.154Z,27.99
2018-05-21T08:25:41.722Z,28.07
2018-05-21T08:28:12.061Z,28.11
2018-05-21T08:30:41.841Z,28.29
2018-05-21T08:33:10.633Z,28.42
2018-05-21T08:35:40.234Z,28.08
2018-05-21T08:38:09.821Z,28.18
2018-05-21T08:40:39.409Z,28.13
2018-05-21T08:43:08.982Z,28.23
2018-05-21T08:45:37.755Z,28.38
2018-05-21T08:48:07.332Z,28.46
2018-05-21T08:50:37.022Z,28.35
2018-05-21T08:53:06.620Z,28.14
2018-05-21T08:55:36.175Z,28.15
2018-05-21T08:58:05.780Z,28.06
2018-05-21T09:00:35.347Z,28.14
2018-05-21T09:03:04.888Z,28.13
2018-05-21T09:05:35.786Z,28.09
2018-05-21T09:08:05.358Z,28.67
2018-05-21T09:10:34.956Z,28.14
2018-05-21T09:13:03.797Z,28.19
2018-05-21T09:15:33.365Z,28.24
2018-05-21T09:18:02.918Z,28.08
2018-05-21T09:20:32.490Z,28.42
2018-05-21T09:23:02.118Z,28.02
2018-05-21T09:25:31.706Z,28.10
2018-05-21T09:28:00.493Z,28.28
2018-05-21T09:30:30.821Z,28.13
2018-05-21T09:33:00.385Z,28.44
2018-05-21T09:35:32.856Z,28.32
2018-05-21T09:38:05.427Z,27.96
2018-05-21T09:40:35.777Z,28.34
2018-05-21T09:43:07.694Z,27.91
2018-05-21T09:45:52.797Z,27.63
2018-05-21T09:48:22.953Z,27.72
2018-05-21T09:50:54.065Z,27.67
2018-05-21T09:53:24.424Z,27.55
2018-05-21T09:55:53.969Z,27.36
2018-05-21T09:58:23.549Z,27.47
2018-05-21T10:00:55.205Z,27.48
2018-05-21T10:03:24.798Z,27.59
2018-05-21T10:05:54.347Z,28.05
2018-05-21T10:08:23.923Z,27.53
2018-05-21T10:10:55.111Z,28.05
2018-05-21T10:13:24.697Z,27.65
2018-05-21T10:15:54.369Z,27.32
2018-05-21T10:18:25.433Z,27.09
2018-05-21T10:20:55.869Z,27.12
2018-05-21T10:23:26.209Z,27.26
2018-05-21T10:25:55.783Z,27.56
2018-05-21T10:28:26.129Z,27.75
2018-05-21T10:30:55.739Z,26.84
2018-05-21T10:33:25.305Z,27.37
2018-05-21T10:35:59.109Z,27.09
2018-05-21T10:38:31.757Z,27.69
2018-05-21T10:41:03.676Z,27.53
2018-05-21T10:43:34.816Z,27.42
2018-05-21T10:46:04.368Z,27.01
2018-05-21T10:48:34.845Z,26.80
2018-05-21T10:51:05.928Z,26.76
2018-05-21T10:53:37.828Z,26.83
2018-05-21T10:56:08.173Z,27.15
2018-05-21T10:58:37.753Z,27.67
2018-05-21T11:01:07.361Z,26.91
2018-05-21T11:03:37.063Z,26.67
2018-05-21T11:06:06.651Z,26.88
2018-05-21T11:08:36.222Z,26.64
2018-05-21T11:11:05.781Z,26.59
2018-05-21T11:13:35.415Z,26.47
2018-05-21T11:16:04.945Z,26.41
2018-05-21T11:18:34.554Z,26.57
2018-05-21T11:21:04.297Z,26.52
2018-05-21T11:23:33.874Z,26.17
2018-05-21T11:26:03.465Z,25.82
2018-05-21T11:28:33.049Z,26.09
2018-05-21T11:31:02.645Z,25.88
2018-05-21T11:33:32.210Z,25.90
2018-05-21T11:36:01.815Z,25.98
2018-05-21T11:38:31.951Z,25.81
2018-05-21T11:41:01.537Z,25.77
2018-05-21T11:43:31.095Z,25.91
2018-05-21T11:46:00.681Z,25.97
2018-05-21T11:48:30.247Z,25.82
2018-05-21T11:50:59.833Z,25.30
2018-05-21T11:53:29.411Z,25.62
2018-05-21T11:55:58.970Z,25.97
2018-05-21T11:58:28.537Z,25.33
2018-05-21T12:00:58.094Z,25.32
2018-05-21T12:03:27.649Z,25.15
2018-05-21T12:05:57.233Z,25.16
2018-05-21T12:08:26.794Z,25.77
2018-05-21T12:10:56.398Z,24.94
2018-05-21T12:13:25.988Z,24.87
2018-05-21T12:15:55.569Z,24.86
2018-05-21T12:18:25.129Z,25.22
2018-05-21T12:20:54.713Z,25.45
2018-05-21T12:23:24.270Z,24.96
2018-05-21T12:25:53.845Z,24.88
2018-05-21T12:28:23.415Z,24.63
2018-05-21T12:30:52.985Z,24.84
2018-05-21T12:33:23.341Z,24.33
2018-05-21T12:35:52.908Z,24.00
2018-05-21T12:38:22.520Z,24.23
2018-05-21T12:40:52.131Z,24.23
2018-05-21T12:43:20.929Z,24.55
2018-05-21T12:45:50.476Z,24.20
2018-05-21T12:48:20.070Z,24.30
2018-05-21T12:50:49.641Z,24.17
2018-05-21T12:53:19.194Z,24.34
2018-05-21T12:55:47.978Z,23.91
2018-05-21T12:58:19.114Z,23.78
2018-05-21T13:00:49.830Z,24.43
2018-05-21T13:03:19.424Z,24.54
2018-05-21T13:05:49.034Z,23.75
2018-05-21T13:08:20.178Z,24.02
2018-05-21T13:10:50.555Z,23.58
2018-05-21T13:13:20.925Z,23.39
2018-05-21T13:15:51.332Z,23.26
2018-05-21T13:18:20.910Z,23.28
2018-05-21T13:20:51.501Z,23.46
2018-05-21T13:23:21.120Z,23.26
2018-05-21T13:25:50.710Z,23.02
2018-05-21T13:28:20.253Z,23.01
2018-05-21T13:30:50.627Z,22.85
2018-05-21T13:33:20.953Z,22.97
2018-05-21T13:35:51.313Z,23.04
2018-05-21T13:38:21.076Z,23.18
2018-05-21T13:40:51.455Z,23.36
2018-05-21T13:43:21.801Z,23.06
2018-05-21T13:45:51.390Z,23.01
2018-05-21T13:48:21.738Z,23.31
2018-05-21T13:50:52.852Z,22.85
2018-05-21T13:53:22.464Z,22.55
2018-05-21T13:55:54.950Z,22.70
2018-05-21T13:58:27.449Z,22.88
2018-05-21T14:00:57.841Z,23.04
2018-05-21T14:03:28.175Z,23.01
2018-05-21T14:05:58.518Z,22.78
2018-05-21T14:08:28.146Z,22.90
2018-05-21T14:10:57.730Z,22.98
2018-05-21T14:13:28.169Z,23.03
2018-05-21T14:15:57.774Z,22.98
2018-05-21T14:18:28.125Z,22.59
2018-05-21T14:20:57.701Z,22.70
2018-05-21T14:23:28.806Z,22.72
2018-05-21T14:25:58.398Z,22.72
2018-05-21T14:28:28.709Z,22.78
2018-05-21T14:30:59.194Z,22.65
2018-05-21T14:33:28.730Z,22.03
2018-05-21T14:35:58.340Z,22.21
2018-05-21T14:38:27.972Z,22.14
2018-05-21T14:40:58.492Z,22.17
2018-05-21T14:43:28.895Z,22.48
2018-05-21T14:45:59.281Z,22.51
2018-05-21T14:48:31.218Z,22.18
2018-05-21T14:51:00.757Z,22.25
2018-05-21T14:53:33.317Z,22.19
2018-05-21T14:56:03.690Z,22.10
2018-05-21T14:58:35.564Z,21.96
2018-05-21T15:01:08.084Z,21.81
2018-05-21T15:03:37.657Z,22.12
2018-05-21T15:06:08.753Z,22.36
2018-05-21T15:08:39.097Z,22.47
2018-05-21T15:11:08.706Z,22.27
2018-05-21T15:13:39.098Z,22.26
2018-05-21T15:16:09.574Z,22.22
2018-05-21T15:18:39.144Z,22.27
2018-05-21T15:21:08.693Z,22.03
2018-05-21T15:23:39.094Z,22.34
2018-05-21T15:26:08.670Z,22.21
2018-05-21T15:28:39.751Z,22.15
2018-05-21T15:31:12.296Z,21.56
2018-05-21T15:33:42.046Z,21.92
2018-05-21T15:36:14.722Z,22.37
2018-05-21T15:38:44.185Z,22.21
2018-05-21T15:41:14.561Z,22.10
2018-05-21T15:43:44.919Z,21.99
2018-05-21T15:46:14.460Z,22.13
2018-05-21T15:48:44.114Z,22.25
2018-05-21T15:51:14.361Z,22.14
2018-05-21T15:53:43.977Z,21.96
2018-05-21T15:56:13.539Z,21.85
2018-05-21T15:58:44.408Z,21.70
2018-05-21T16:01:13.951Z,21.73
2018-05-21T16:03:43.534Z,21.98
2018-05-21T16:06:13.144Z,21.88
2018-05-21T16:08:42.796Z,22.19
2018-05-21T16:11:12.313Z,22.26
2018-05-21T16:13:42.669Z,22.26
2018-05-21T16:16:15.193Z,22.13
2018-05-21T16:18:57.311Z,22.06
2018-05-21T16:21:26.937Z,22.07
2018-05-21T16:23:56.665Z,21.80
2018-05-21T16:26:26.264Z,21.88
2018-05-21T16:28:56.588Z,21.77
2018-05-21T16:31:26.983Z,21.91
2018-05-21T16:33:56.541Z,21.72
2018-05-21T16:36:26.481Z,21.86
2018-05-21T16:38:56.078Z,22.10
2018-05-21T16:41:26.346Z,21.97
2018-05-21T16:43:55.877Z,22.11
2018-05-21T16:46:25.566Z,21.90
2018-05-21T16:48:55.095Z,21.86
2018-05-21T16:51:24.657Z,21.85
2018-05-21T16:53:54.232Z,21.84
2018-05-21T16:56:23.805Z,21.84
2018-05-21T16:58:53.405Z,21.82
2018-05-21T17:01:24.533Z,21.76
2018-05-21T17:03:54.107Z,21.85
2018-05-21T17:06:23.693Z,21.96
2018-05-21T17:08:54.885Z,22.40
2018-05-21T17:11:26.097Z,21.94
2018-05-21T17:13:56.445Z,21.62
2018-05-21T17:16:28.950Z,21.13
2018-05-21T17:19:00.049Z,21.05
2018-05-21T17:21:30.400Z,21.11
2018-05-21T17:24:00.076Z,21.28
2018-05-21T17:26:30.411Z,21.68
2018-05-21T17:28:59.991Z,21.55
2018-05-21T17:31:29.577Z,21.66
2018-05-21T17:33:59.122Z,21.81
2018-05-21T17:36:28.722Z,21.45
2018-05-21T17:38:58.316Z,21.71
2018-05-21T17:41:27.882Z,21.76
2018-05-21T17:43:57.479Z,21.63
2018-05-21T17:46:27.041Z,21.59
2018-05-21T17:48:56.649Z,21.19
2018-05-21T17:51:26.235Z,21.30
2018-05-21T17:53:57.294Z,21.53
2018-05-21T17:56:39.424Z,21.39
2018-05-21T17:59:09.027Z,21.60
2018-05-21T18:01:41.249Z,21.64
2018-05-21T18:04:22.663Z,21.95
2018-05-21T18:06:55.176Z,21.69
2018-05-21T18:09:25.580Z,22.03
2018-05-21T18:11:56.725Z,21.54
2018-05-21T18:14:26.390Z,21.57
2018-05-21T18:16:56.807Z,22.06
2018-05-21T18:19:27.049Z,22.21
2018-05-21T18:21:56.637Z,22.23
2018-05-21T18:24:26.203Z,22.35
2018-05-21T18:26:56.357Z,22.54
2018-05-21T18:29:25.918Z,22.56
2018-05-21T18:31:56.282Z,22.57
2018-05-21T18:34:27.379Z,22.86
2018-05-21T18:36:56.974Z,23.00
2018-05-21T18:39:26.608Z,23.01
2018-05-21T18:41:56.957Z,23.08
2018-05-21T18:44:26.550Z,23.33
2018-05-21T18:46:56.888Z,23.57
2018-05-21T18:49:26.482Z,23.63
2018-05-21T18:51:57.584Z,23.77
2018-05-21T18:54:30.113Z,24.03
2018-05-21T18:57:00.474Z,24.08
2018-05-21T18:59:32.524Z,24.29
2018-05-21T19:02:02.127Z,24.53
2018-05-21T19:04:32.500Z,24.49
2018-05-21T19:07:02.099Z,24.93
2018-05-21T19:09:31.729Z,25.12
2018-05-21T19:12:01.308Z,25.20
2018-05-21T19:14:32.569Z,25.41
2018-05-21T19:17:02.123Z,25.66
2018-05-21T19:19:31.677Z,25.59
2018-05-21T19:22:02.972Z,25.59
2018-05-21T19:24:32.540Z,25.53
2018-05-21T19:27:02.151Z,25.55
2018-05-21T19:29:31.720Z,25.83
2018-05-21T19:32:01.292Z,26.14
2018-05-21T19:34:30.851Z,26.22
2018-05-21T19:37:12.986Z,26.13
2018-05-21T19:39:42.648Z,26.24
2018-05-21T19:42:14.617Z,26.39
2018-05-21T19:44:44.202Z,26.29
2018-05-21T19:47:15.335Z,26.46
2018-05-21T19:49:44.919Z,26.54
2018-05-21T19:52:17.411Z,26.60
2018-05-21T19:54:46.984Z,26.96
2018-05-21T19:57:18.098Z,27.05
2018-05-21T19:59:48.464Z,27.24
2018-05-21T20:02:18.824Z,27.57
2018-05-21T20:04:48.456Z,27.56
2018-05-21T20:07:30.617Z,27.22
2018-05-21T20:10:02.578Z,27.18
2018-05-21T20:12:32.240Z,27.15
2018-05-21T20:15:01.849Z,27.37
2018-05-21T20:17:31.425Z,27.66
2018-05-21T20:20:01.745Z,27.90
2018-05-21T20:22:31.336Z,28.21
2018-05-21T20:25:00.893Z,27.87
2018-05-21T20:27:30.474Z,27.56
2018-05-21T20:30:01.072Z,27.12
2018-05-21T20:32:30.652Z,26.85
2018-05-21T20:35:00.243Z,26.70
2018-05-21T20:37:29.846Z,26.50
2018-05-21T20:39:59.458Z,26.33
2018-05-21T20:42:29.051Z,26.41
2018-05-21T20:44:58.639Z,26.21
2018-05-21T20:47:28.225Z,26.05
2018-05-21T20:49:57.036Z,25.97
2018-05-21T20:52:26.628Z,25.83
2018-05-21T20:54:56.209Z,25.74
2018-05-21T20:57:25.798Z,25.74
2018-05-21T20:59:56.131Z,25.70
2018-05-21T21:02:25.685Z,25.68
2018-05-21T21:04:56.790Z,25.61
2018-05-21T21:07:27.157Z,25.65
2018-05-21T21:09:59.079Z,26.26
2018-05-21T21:12:29.465Z,26.37
2018-05-21T21:14:59.033Z,26.46
2018-05-21T21:17:28.594Z,26.51
2018-05-21T21:19:58.959Z,26.40
2018-05-21T21:22:28.529Z,26.34
2018-05-21T21:24:58.117Z,26.21
2018-05-21T21:27:27.692Z,26.18
2018-05-21T21:29:57.300Z,26.17
2018-05-21T21:32:27.637Z,26.22
2018-05-21T21:34:57.987Z,26.26
2018-05-21T21:37:28.293Z,26.37
2018-05-21T21:39:58.687Z,26.28
2018-05-21T21:42:41.555Z,26.18
2018-05-21T21:45:11.916Z,26.34
2018-05-21T21:47:41.500Z,26.19
2018-05-21T21:50:11.078Z,26.05
2018-05-21T21:52:41.429Z,26.02
2018-05-21T21:55:13.343Z,25.89
2018-05-21T21:57:43.038Z,25.83
2018-05-21T22:00:15.553Z,25.85
2018-05-21T22:02:45.131Z,25.86
2018-05-21T22:05:15.663Z,25.70
2018-05-21T22:07:45.292Z,25.90
2018-05-21T22:10:15.726Z,25.94
2018-05-21T22:12:45.292Z,25.79
2018-05-21T22:15:14.892Z,25.62
2018-05-21T22:17:44.831Z,25.47
2018-05-21T22:20:28.073Z,25.28
2018-05-21T22:22:59.177Z,25.18
2018-05-21T22:25:28.785Z,25.20
2018-05-21T22:27:58.371Z,25.05
2018-05-21T22:30:27.976Z,24.92
2018-05-21T22:32:58.354Z,24.86
2018-05-21T22:35:27.982Z,24.94
2018-05-21T22:37:58.374Z,24.94
2018-05-21T22:40:27.989Z,25.00
2018-05-21T22:42:58.377Z,25.05
2018-05-21T22:45:31.129Z,25.31
2018-05-21T22:48:02.340Z,25.28
2018-05-21T22:50:31.857Z,25.36
2018-05-21T22:53:01.469Z,25.45
2018-05-21T22:55:31.818Z,25.45
2018-05-21T22:58:01.398Z,25.48
2018-05-21T23:00:30.971Z,25.53
2018-05-21T23:03:02.086Z,25.61
2018-05-21T23:05:31.681Z,25.66
2018-05-21T23:08:02.010Z,25.72
2018-05-21T23:10:32.350Z,25.73
2018-05-21T23:13:02.679Z,25.73
2018-05-21T23:15:33.825Z,25.78
2018-05-21T23:18:04.231Z,25.99
2018-05-21T23:20:34.585Z,25.97
2018-05-21T23:23:04.150Z,26.04
2018-05-21T23:25:33.742Z,26.05
2018-05-21T23:28:03.340Z,25.92
2018-05-21T23:30:33.002Z,25.90
2018-05-21T23:33:02.577Z,25.90
2018-05-21T23:35:32.140Z,25.87
2018-05-21T23:38:02.493Z,25.76
2018-05-21T23:40:33.592Z,25.66
2018-05-21T23:43:03.945Z,25.86
2018-05-21T23:45:46.097Z,25.95
2018-05-21T23:48:15.674Z,25.75
2018-05-21T23:50:45.209Z,25.75
2018-05-21T23:53:17.733Z,25.75
2018-05-21T23:55:47.278Z,25.70
2018-05-21T23:58:18.418Z,25.66
